Terminal Aerodrome Forecast
Issued by NWS Boise, ID

Home | Current Version | Previous Version | Text Only | Print | Product List | Glossary On
Versions: 1 2 3 4 5 6 7 8 9 10 11 12 13 14 15 16 17 18 19 20 21 22 23 24 25 26 27 28 29 30 31 32 33 34 35 36 37 38 39 40 41 42 43 44 45 46
000
FTUS45 KBOI 230720 AAA
TAFBNO
TAF AMD
KBNO 230720Z 2307/2406 VRB04KT P6SM VCFG BKN090
     FM231300 VRB05KT 1SM -SN BR OVC010
     FM232000 25007KT 4SM -SHSN OVC020
     FM240000 27006KT P6SM BKN050
     FM240300 25005KT P6SM VCFG OVC005=

USA.gov is the U.S. government's official web portal to all federal, state and local government web resources and services.